sensor_id;sensor_type;location;lat;lon;timestamp;P1;durP1;ratioP1;P2;durP2;ratioP2
16326;SDS011;34812;49.846;9.610;2023-10-13T00:03:20;5.28;;;3.75;;
16326;SDS011;34812;49.846;9.610;2023-10-13T00:08:24;6.45;;;4.70;;
16326;SDS011;34812;49.846;9.610;2023-10-13T00:13:26;4.55;;;3.83;;
16326;SDS011;34812;49.846;9.610;2023-10-13T00:18:30;7.47;;;4.10;;
16326;SDS011;34812;49.846;9.610;2023-10-13T00:23:35;6.97;;;4.82;;
16326;SDS011;34812;49.846;9.610;2023-10-13T00:28:37;9.60;;;4.28;;
16326;SDS011;34812;49.846;9.610;2023-10-13T00:33:47;5.40;;;4.25;;
16326;SDS011;34812;49.846;9.610;2023-10-13T00:38:52;8.00;;;4.18;;
16326;SDS011;34812;49.846;9.610;2023-10-13T00:43:56;7.53;;;4.68;;
16326;SDS011;34812;49.846;9.610;2023-10-13T00:49:15;6.75;;;4.35;;
16326;SDS011;34812;49.846;9.610;2023-10-13T00:54:19;6.85;;;3.80;;
16326;SDS011;34812;49.846;9.610;2023-10-13T00:59:26;8.27;;;3.75;;
16326;SDS011;34812;49.846;9.610;2023-10-13T01:04:29;6.15;;;3.80;;
16326;SDS011;34812;49.846;9.610;2023-10-13T01:09:39;6.68;;;3.85;;
16326;SDS011;34812;49.846;9.610;2023-10-13T01:14:43;7.22;;;3.97;;
16326;SDS011;34812;49.846;9.610;2023-10-13T01:19:46;4.45;;;3.28;;
16326;SDS011;34812;49.846;9.610;2023-10-13T01:24:50;5.80;;;3.47;;
16326;SDS011;34812;49.846;9.610;2023-10-13T01:30:04;10.38;;;3.85;;
16326;SDS011;34812;49.846;9.610;2023-10-13T01:35:10;9.15;;;3.80;;
16326;SDS011;34812;49.846;9.610;2023-10-13T01:40:13;7.40;;;3.72;;
16326;SDS011;34812;49.846;9.610;2023-10-13T01:45:20;5.60;;;3.80;;
16326;SDS011;34812;49.846;9.610;2023-10-13T01:50:28;8.10;;;3.97;;
16326;SDS011;34812;49.846;9.610;2023-10-13T01:55:33;5.38;;;3.33;;
16326;SDS011;34812;49.846;9.610;2023-10-13T02:00:43;3.83;;;3.15;;
16326;SDS011;34812;49.846;9.610;2023-10-13T02:05:46;4.72;;;2.95;;
16326;SDS011;34812;49.846;9.610;2023-10-13T02:10:49;5.80;;;3.42;;
16326;SDS011;34812;49.846;9.610;2023-10-13T02:15:55;5.43;;;3.58;;
16326;SDS011;34812;49.846;9.610;2023-10-13T02:21:01;5.70;;;3.78;;
16326;SDS011;34812;49.846;9.610;2023-10-13T02:26:06;3.67;;;2.92;;
16326;SDS011;34812;49.846;9.610;2023-10-13T02:31:13;4.18;;;3.30;;
16326;SDS011;34812;49.846;9.610;2023-10-13T02:36:17;8.13;;;4.18;;
16326;SDS011;34812;49.846;9.610;2023-10-13T02:41:24;7.50;;;4.10;;
16326;SDS011;34812;49.846;9.610;2023-10-13T02:46:26;11.43;;;3.83;;
16326;SDS011;34812;49.846;9.610;2023-10-13T02:51:29;5.63;;;3.30;;
16326;SDS011;34812;49.846;9.610;2023-10-13T02:56:37;7.60;;;4.03;;
16326;SDS011;34812;49.846;9.610;2023-10-13T03:01:48;9.85;;;3.85;;
16326;SDS011;34812;49.846;9.610;2023-10-13T03:06:53;5.68;;;3.53;;
16326;SDS011;34812;49.846;9.610;2023-10-13T03:11:56;4.88;;;3.50;;
16326;SDS011;34812;49.846;9.610;2023-10-13T03:16:59;6.43;;;4.38;;
16326;SDS011;34812;49.846;9.610;2023-10-13T03:22:06;5.85;;;3.72;;
16326;SDS011;34812;49.846;9.610;2023-10-13T03:27:11;21.02;;;4.93;;
16326;SDS011;34812;49.846;9.610;2023-10-13T03:32:16;10.32;;;4.82;;
16326;SDS011;34812;49.846;9.610;2023-10-13T03:37:19;6.67;;;4.07;;
16326;SDS011;34812;49.846;9.610;2023-10-13T03:42:38;8.90;;;4.23;;
16326;SDS011;34812;49.846;9.610;2023-10-13T03:47:41;3.87;;;3.13;;
16326;SDS011;34812;49.846;9.610;2023-10-13T03:52:45;3.83;;;3.20;;
16326;SDS011;34812;49.846;9.610;2023-10-13T03:57:50;8.93;;;3.73;;
16326;SDS011;34812;49.846;9.610;2023-10-13T04:02:53;8.43;;;4.20;;
16326;SDS011;34812;49.846;9.610;2023-10-13T04:08:07;19.87;;;4.70;;
16326;SDS011;34812;49.846;9.610;2023-10-13T04:13:25;17.43;;;4.87;;
16326;SDS011;34812;49.846;9.610;2023-10-13T04:18:45;11.40;;;4.50;;
16326;SDS011;34812;49.846;9.610;2023-10-13T04:24:08;8.33;;;3.83;;
16326;SDS011;34812;49.846;9.610;2023-10-13T04:29:27;6.20;;;4.40;;
16326;SDS011;34812;49.846;9.610;2023-10-13T04:34:46;7.57;;;4.00;;
16326;SDS011;34812;49.846;9.610;2023-10-13T04:39:51;5.00;;;3.40;;
16326;SDS011;34812;49.846;9.610;2023-10-13T04:45:00;8.40;;;4.07;;
16326;SDS011;34812;49.846;9.610;2023-10-13T04:50:16;16.80;;;3.80;;
16326;SDS011;34812;49.846;9.610;2023-10-13T04:55:27;10.87;;;3.27;;
16326;SDS011;34812;49.846;9.610;2023-10-13T05:01:01;19.93;;;3.23;;
16326;SDS011;34812;49.846;9.610;2023-10-13T05:06:44;15.50;;;4.00;;
16326;SDS011;34812;49.846;9.610;2023-10-13T05:12:04;14.93;;;3.57;;
16326;SDS011;34812;49.846;9.610;2023-10-13T05:17:33;18.80;;;5.33;;
16326;SDS011;34812;49.846;9.610;2023-10-13T05:22:53;7.70;;;3.43;;
16326;SDS011;34812;49.846;9.610;2023-10-13T05:28:13;10.60;;;3.77;;
16326;SDS011;34812;49.846;9.610;2023-10-13T05:33:34;9.17;;;3.87;;
16326;SDS011;34812;49.846;9.610;2023-10-13T05:39:06;15.47;;;4.27;;
16326;SDS011;34812;49.846;9.610;2023-10-13T05:44:27;14.00;;;4.10;;
16326;SDS011;34812;49.846;9.610;2023-10-13T05:49:38;8.47;;;3.20;;
16326;SDS011;34812;49.846;9.610;2023-10-13T05:54:55;21.33;;;4.10;;
16326;SDS011;34812;49.846;9.610;2023-10-13T06:00:14;16.90;;;3.70;;
16326;SDS011;34812;49.846;9.610;2023-10-13T06:05:36;14.07;;;4.40;;
16326;SDS011;34812;49.846;9.610;2023-10-13T06:11:00;14.77;;;4.03;;
16326;SDS011;34812;49.846;9.610;2023-10-13T06:16:20;13.77;;;4.70;;
16326;SDS011;34812;49.846;9.610;2023-10-13T06:21:41;4.33;;;3.77;;
16326;SDS011;34812;49.846;9.610;2023-10-13T06:27:02;6.37;;;4.60;;
16326;SDS011;34812;49.846;9.610;2023-10-13T06:32:22;6.97;;;3.97;;
16326;SDS011;34812;49.846;9.610;2023-10-13T06:37:27;6.13;;;4.27;;
16326;SDS011;34812;49.846;9.610;2023-10-13T06:42:31;10.30;;;5.83;;
16326;SDS011;34812;49.846;9.610;2023-10-13T06:47:35;7.30;;;5.27;;
16326;SDS011;34812;49.846;9.610;2023-10-13T06:52:44;7.33;;;4.43;;
16326;SDS011;34812;49.846;9.610;2023-10-13T06:57:46;6.87;;;4.27;;
16326;SDS011;34812;49.846;9.610;2023-10-13T07:02:51;15.13;;;4.80;;
16326;SDS011;34812;49.846;9.610;2023-10-13T07:07:54;7.30;;;4.07;;
16326;SDS011;34812;49.846;9.610;2023-10-13T07:12:57;7.33;;;4.43;;
16326;SDS011;34812;49.846;9.610;2023-10-13T07:18:00;4.75;;;3.25;;
16326;SDS011;34812;49.846;9.610;2023-10-13T07:23:07;3.85;;;3.40;;
16326;SDS011;34812;49.846;9.610;2023-10-13T07:28:11;4.00;;;3.25;;
16326;SDS011;34812;49.846;9.610;2023-10-13T07:33:15;3.47;;;2.90;;
16326;SDS011;34812;49.846;9.610;2023-10-13T07:38:21;4.75;;;3.40;;
16326;SDS011;34812;49.846;9.610;2023-10-13T07:43:23;4.82;;;2.72;;
16326;SDS011;34812;49.846;9.610;2023-10-13T07:48:27;4.43;;;3.40;;
16326;SDS011;34812;49.846;9.610;2023-10-13T07:53:31;6.47;;;4.22;;
16326;SDS011;34812;49.846;9.610;2023-10-13T07:58:35;6.55;;;3.83;;
16326;SDS011;34812;49.846;9.610;2023-10-13T08:03:47;6.72;;;3.88;;
16326;SDS011;34812;49.846;9.610;2023-10-13T08:08:58;7.38;;;3.80;;
16326;SDS011;34812;49.846;9.610;2023-10-13T08:14:08;10.50;;;4.15;;
16326;SDS011;34812;49.846;9.610;2023-10-13T08:19:22;6.13;;;4.07;;
16326;SDS011;34812;49.846;9.610;2023-10-13T08:24:28;4.65;;;3.20;;
16326;SDS011;34812;49.846;9.610;2023-10-13T08:29:50;6.82;;;3.17;;
16326;SDS011;34812;49.846;9.610;2023-10-13T08:35:06;5.28;;;3.17;;
16326;SDS011;34812;49.846;9.610;2023-10-13T08:40:24;5.47;;;2.97;;
16326;SDS011;34812;49.846;9.610;2023-10-13T08:46:04;10.98;;;3.33;;
16326;SDS011;34812;49.846;9.610;2023-10-13T08:51:07;7.47;;;2.70;;
16326;SDS011;34812;49.846;9.610;2023-10-13T08:56:21;5.75;;;2.75;;
16326;SDS011;34812;49.846;9.610;2023-10-13T09:01:34;6.93;;;2.58;;
16326;SDS011;34812;49.846;9.610;2023-10-13T09:06:39;3.60;;;2.55;;
16326;SDS011;34812;49.846;9.610;2023-10-13T09:11:44;6.90;;;2.78;;
16326;SDS011;34812;49.846;9.610;2023-10-13T09:16:55;4.13;;;2.13;;
16326;SDS011;34812;49.846;9.610;2023-10-13T09:22:07;2.42;;;2.15;;
16326;SDS011;34812;49.846;9.610;2023-10-13T09:27:27;7.38;;;2.97;;
16326;SDS011;34812;49.846;9.610;2023-10-13T09:32:29;5.28;;;2.55;;
16326;SDS011;34812;49.846;9.610;2023-10-13T09:37:32;6.32;;;2.42;;
16326;SDS011;34812;49.846;9.610;2023-10-13T09:42:38;4.78;;;2.53;;
16326;SDS011;34812;49.846;9.610;2023-10-13T09:47:41;4.15;;;1.75;;
16326;SDS011;34812;49.846;9.610;2023-10-13T09:52:44;2.08;;;1.65;;
16326;SDS011;34812;49.846;9.610;2023-10-13T09:57:51;4.80;;;2.15;;
16326;SDS011;34812;49.846;9.610;2023-10-13T10:02:57;9.27;;;2.85;;
16326;SDS011;34812;49.846;9.610;2023-10-13T10:08:23;2.60;;;1.58;;
16326;SDS011;34812;49.846;9.610;2023-10-13T10:13:34;6.22;;;1.98;;
16326;SDS011;34812;49.846;9.610;2023-10-13T10:18:38;3.35;;;2.03;;
16326;SDS011;34812;49.846;9.610;2023-10-13T10:23:40;6.80;;;2.20;;
16326;SDS011;34812;49.846;9.610;2023-10-13T10:28:45;6.07;;;2.33;;
16326;SDS011;34812;49.846;9.610;2023-10-13T10:33:48;3.47;;;2.67;;
16326;SDS011;34812;49.846;9.610;2023-10-13T10:38:51;6.18;;;1.88;;
16326;SDS011;34812;49.846;9.610;2023-10-13T10:43:56;2.78;;;1.88;;
16326;SDS011;34812;49.846;9.610;2023-10-13T10:49:03;5.18;;;2.05;;
16326;SDS011;34812;49.846;9.610;2023-10-13T10:54:17;4.88;;;1.90;;
16326;SDS011;34812;49.846;9.610;2023-10-13T10:59:21;4.30;;;2.10;;
16326;SDS011;34812;49.846;9.610;2023-10-13T11:04:25;4.63;;;2.08;;
16326;SDS011;34812;49.846;9.610;2023-10-13T11:09:34;3.72;;;2.38;;
16326;SDS011;34812;49.846;9.610;2023-10-13T11:14:47;5.20;;;2.33;;
16326;SDS011;34812;49.846;9.610;2023-10-13T11:19:50;5.05;;;2.17;;
16326;SDS011;34812;49.846;9.610;2023-10-13T11:24:52;8.40;;;1.95;;
16326;SDS011;34812;49.846;9.610;2023-10-13T11:29:56;2.72;;;1.55;;
16326;SDS011;34812;49.846;9.610;2023-10-13T11:35:05;3.47;;;2.00;;
16326;SDS011;34812;49.846;9.610;2023-10-13T11:40:20;6.97;;;2.05;;
16326;SDS011;34812;49.846;9.610;2023-10-13T11:45:47;4.28;;;2.63;;
16326;SDS011;34812;49.846;9.610;2023-10-13T11:50:56;5.75;;;2.35;;
16326;SDS011;34812;49.846;9.610;2023-10-13T11:55:58;2.25;;;2.00;;
16326;SDS011;34812;49.846;9.610;2023-10-13T12:01:01;2.97;;;1.95;;
16326;SDS011;34812;49.846;9.610;2023-10-13T12:06:20;4.22;;;2.30;;
16326;SDS011;34812;49.846;9.610;2023-10-13T12:11:33;1.83;;;1.58;;
16326;SDS011;34812;49.846;9.610;2023-10-13T12:16:40;2.65;;;2.10;;
16326;SDS011;34812;49.846;9.610;2023-10-13T12:21:43;3.00;;;1.73;;
16326;SDS011;34812;49.846;9.610;2023-10-13T12:26:46;3.95;;;1.75;;
16326;SDS011;34812;49.846;9.610;2023-10-13T12:31:50;4.03;;;1.90;;
16326;SDS011;34812;49.846;9.610;2023-10-13T12:37:01;3.53;;;1.70;;
16326;SDS011;34812;49.846;9.610;2023-10-13T12:42:24;5.97;;;1.90;;
16326;SDS011;34812;49.846;9.610;2023-10-13T12:47:46;5.43;;;1.70;;
16326;SDS011;34812;49.846;9.610;2023-10-13T12:53:06;6.03;;;2.05;;
16326;SDS011;34812;49.846;9.610;2023-10-13T12:58:14;4.00;;;1.63;;
16326;SDS011;34812;49.846;9.610;2023-10-13T13:03:17;2.47;;;1.67;;
16326;SDS011;34812;49.846;9.610;2023-10-13T13:08:20;3.22;;;1.52;;
16326;SDS011;34812;49.846;9.610;2023-10-13T13:13:23;3.92;;;1.70;;
16326;SDS011;34812;49.846;9.610;2023-10-13T13:18:27;7.68;;;1.85;;
16326;SDS011;34812;49.846;9.610;2023-10-13T13:23:29;2.40;;;1.52;;
16326;SDS011;34812;49.846;9.610;2023-10-13T13:28:31;2.13;;;1.85;;
16326;SDS011;34812;49.846;9.610;2023-10-13T13:33:39;3.83;;;1.98;;
16326;SDS011;34812;49.846;9.610;2023-10-13T13:38:43;3.40;;;1.90;;
16326;SDS011;34812;49.846;9.610;2023-10-13T13:43:49;2.17;;;1.50;;
16326;SDS011;34812;49.846;9.610;2023-10-13T13:48:58;3.25;;;1.80;;
16326;SDS011;34812;49.846;9.610;2023-10-13T13:54:01;5.47;;;1.75;;
16326;SDS011;34812;49.846;9.610;2023-10-13T13:59:06;6.10;;;1.52;;
16326;SDS011;34812;49.846;9.610;2023-10-13T14:04:10;2.78;;;1.52;;
16326;SDS011;34812;49.846;9.610;2023-10-13T14:09:17;2.05;;;1.38;;
16326;SDS011;34812;49.846;9.610;2023-10-13T14:14:32;3.67;;;1.70;;
16326;SDS011;34812;49.846;9.610;2023-10-13T14:19:36;5.43;;;2.00;;
16326;SDS011;34812;49.846;9.610;2023-10-13T14:24:41;4.68;;;1.60;;
16326;SDS011;34812;49.846;9.610;2023-10-13T14:29:47;7.60;;;1.50;;
16326;SDS011;34812;49.846;9.610;2023-10-13T14:34:54;2.50;;;1.65;;
16326;SDS011;34812;49.846;9.610;2023-10-13T14:39:56;3.42;;;1.65;;
16326;SDS011;34812;49.846;9.610;2023-10-13T14:44:59;3.28;;;1.65;;
16326;SDS011;34812;49.846;9.610;2023-10-13T14:50:03;4.75;;;1.88;;
16326;SDS011;34812;49.846;9.610;2023-10-13T14:55:05;2.92;;;1.88;;
16326;SDS011;34812;49.846;9.610;2023-10-13T15:00:18;2.67;;;1.75;;
16326;SDS011;34812;49.846;9.610;2023-10-13T15:05:27;4.45;;;1.63;;
16326;SDS011;34812;49.846;9.610;2023-10-13T15:10:31;10.27;;;2.55;;
16326;SDS011;34812;49.846;9.610;2023-10-13T15:15:36;4.43;;;1.67;;
16326;SDS011;34812;49.846;9.610;2023-10-13T15:20:40;9.63;;;1.92;;
16326;SDS011;34812;49.846;9.610;2023-10-13T15:25:43;3.03;;;2.10;;
16326;SDS011;34812;49.846;9.610;2023-10-13T15:30:50;4.68;;;1.73;;
16326;SDS011;34812;49.846;9.610;2023-10-13T15:36:06;5.30;;;1.85;;
16326;SDS011;34812;49.846;9.610;2023-10-13T15:41:08;4.00;;;1.70;;
16326;SDS011;34812;49.846;9.610;2023-10-13T15:46:15;6.22;;;1.77;;
16326;SDS011;34812;49.846;9.610;2023-10-13T15:51:19;2.13;;;1.30;;
16326;SDS011;34812;49.846;9.610;2023-10-13T15:56:21;3.28;;;1.80;;
16326;SDS011;34812;49.846;9.610;2023-10-13T16:01:23;4.80;;;2.75;;
16326;SDS011;34812;49.846;9.610;2023-10-13T16:06:27;6.35;;;3.17;;
16326;SDS011;34812;49.846;9.610;2023-10-13T16:11:29;7.10;;;3.50;;
16326;SDS011;34812;49.846;9.610;2023-10-13T16:16:31;6.60;;;3.28;;
16326;SDS011;34812;49.846;9.610;2023-10-13T16:21:36;17.42;;;5.45;;
16326;SDS011;34812;49.846;9.610;2023-10-13T16:26:39;10.65;;;4.60;;
16326;SDS011;34812;49.846;9.610;2023-10-13T16:31:42;10.43;;;5.88;;
16326;SDS011;34812;49.846;9.610;2023-10-13T16:36:47;7.22;;;3.22;;
16326;SDS011;34812;49.846;9.610;2023-10-13T16:41:54;8.73;;;4.80;;
16326;SDS011;34812;49.846;9.610;2023-10-13T16:46:56;6.07;;;3.42;;
16326;SDS011;34812;49.846;9.610;2023-10-13T16:52:01;4.47;;;3.10;;
16326;SDS011;34812;49.846;9.610;2023-10-13T16:57:03;9.43;;;4.78;;
16326;SDS011;34812;49.846;9.610;2023-10-13T17:02:06;5.03;;;2.78;;
16326;SDS011;34812;49.846;9.610;2023-10-13T17:07:12;5.40;;;3.47;;
16326;SDS011;34812;49.846;9.610;2023-10-13T17:12:15;4.95;;;3.58;;
16326;SDS011;34812;49.846;9.610;2023-10-13T17:17:17;8.90;;;6.80;;
16326;SDS011;34812;49.846;9.610;2023-10-13T17:22:22;5.53;;;3.75;;
16326;SDS011;34812;49.846;9.610;2023-10-13T17:27:24;9.93;;;5.35;;
16326;SDS011;34812;49.846;9.610;2023-10-13T17:32:27;9.25;;;5.93;;
16326;SDS011;34812;49.846;9.610;2023-10-13T17:37:31;8.88;;;3.95;;
16326;SDS011;34812;49.846;9.610;2023-10-13T17:42:33;5.68;;;3.38;;
16326;SDS011;34812;49.846;9.610;2023-10-13T17:47:36;7.35;;;3.25;;
16326;SDS011;34812;49.846;9.610;2023-10-13T17:52:39;6.05;;;3.22;;
16326;SDS011;34812;49.846;9.610;2023-10-13T17:57:42;5.88;;;3.10;;
16326;SDS011;34812;49.846;9.610;2023-10-13T18:02:46;3.88;;;3.03;;
16326;SDS011;34812;49.846;9.610;2023-10-13T18:07:49;11.73;;;8.38;;
16326;SDS011;34812;49.846;9.610;2023-10-13T18:12:52;11.25;;;3.10;;
16326;SDS011;34812;49.846;9.610;2023-10-13T18:17:54;3.35;;;2.40;;
16326;SDS011;34812;49.846;9.610;2023-10-13T18:22:58;6.45;;;2.03;;
16326;SDS011;34812;49.846;9.610;2023-10-13T18:28:00;4.18;;;1.88;;
16326;SDS011;34812;49.846;9.610;2023-10-13T18:33:03;3.88;;;2.38;;
16326;SDS011;34812;49.846;9.610;2023-10-13T18:38:08;6.30;;;2.28;;
16326;SDS011;34812;49.846;9.610;2023-10-13T18:43:10;4.65;;;2.47;;
16326;SDS011;34812;49.846;9.610;2023-10-13T18:48:12;4.07;;;2.08;;
16326;SDS011;34812;49.846;9.610;2023-10-13T18:53:16;9.70;;;2.80;;
16326;SDS011;34812;49.846;9.610;2023-10-13T18:58:18;4.90;;;3.60;;
16326;SDS011;34812;49.846;9.610;2023-10-13T19:03:22;5.68;;;2.60;;
16326;SDS011;34812;49.846;9.610;2023-10-13T19:08:27;7.50;;;3.20;;
16326;SDS011;34812;49.846;9.610;2023-10-13T19:13:32;8.70;;;2.67;;
16326;SDS011;34812;49.846;9.610;2023-10-13T19:18:34;6.55;;;3.15;;
16326;SDS011;34812;49.846;9.610;2023-10-13T19:23:38;7.05;;;2.65;;
16326;SDS011;34812;49.846;9.610;2023-10-13T19:28:40;9.95;;;2.92;;
16326;SDS011;34812;49.846;9.610;2023-10-13T19:33:43;6.50;;;3.13;;
16326;SDS011;34812;49.846;9.610;2023-10-13T19:38:47;6.35;;;3.95;;
16326;SDS011;34812;49.846;9.610;2023-10-13T19:43:52;9.35;;;2.97;;
16326;SDS011;34812;49.846;9.610;2023-10-13T19:48:57;5.90;;;3.50;;
16326;SDS011;34812;49.846;9.610;2023-10-13T19:54:00;12.45;;;5.95;;
16326;SDS011;34812;49.846;9.610;2023-10-13T19:59:03;4.93;;;2.95;;
16326;SDS011;34812;49.846;9.610;2023-10-13T20:04:05;5.15;;;2.22;;
16326;SDS011;34812;49.846;9.610;2023-10-13T20:09:09;4.00;;;1.88;;
16326;SDS011;34812;49.846;9.610;2023-10-13T20:14:22;6.00;;;2.35;;
16326;SDS011;34812;49.846;9.610;2023-10-13T20:19:24;4.90;;;2.33;;
16326;SDS011;34812;49.846;9.610;2023-10-13T20:24:28;2.85;;;2.03;;
16326;SDS011;34812;49.846;9.610;2023-10-13T20:29:30;2.70;;;2.17;;
16326;SDS011;34812;49.846;9.610;2023-10-13T20:34:32;7.38;;;2.30;;
16326;SDS011;34812;49.846;9.610;2023-10-13T20:39:35;4.60;;;2.45;;
16326;SDS011;34812;49.846;9.610;2023-10-13T20:44:38;3.63;;;2.30;;
16326;SDS011;34812;49.846;9.610;2023-10-13T20:49:40;2.97;;;2.08;;
16326;SDS011;34812;49.846;9.610;2023-10-13T20:54:44;4.40;;;1.77;;
16326;SDS011;34812;49.846;9.610;2023-10-13T20:59:47;3.88;;;1.85;;
16326;SDS011;34812;49.846;9.610;2023-10-13T21:04:49;3.58;;;1.67;;
16326;SDS011;34812;49.846;9.610;2023-10-13T21:09:53;4.20;;;2.10;;
16326;SDS011;34812;49.846;9.610;2023-10-13T21:14:55;3.17;;;1.70;;
16326;SDS011;34812;49.846;9.610;2023-10-13T21:19:57;1.80;;;1.40;;
16326;SDS011;34812;49.846;9.610;2023-10-13T21:25:00;6.53;;;1.67;;
16326;SDS011;34812;49.846;9.610;2023-10-13T21:30:04;3.80;;;1.63;;
16326;SDS011;34812;49.846;9.610;2023-10-13T21:35:07;3.35;;;1.58;;
16326;SDS011;34812;49.846;9.610;2023-10-13T21:40:11;3.05;;;1.55;;
16326;SDS011;34812;49.846;9.610;2023-10-13T21:45:17;3.20;;;1.65;;
16326;SDS011;34812;49.846;9.610;2023-10-13T21:50:19;2.90;;;1.52;;
16326;SDS011;34812;49.846;9.610;2023-10-13T21:55:26;3.33;;;1.80;;
16326;SDS011;34812;49.846;9.610;2023-10-13T22:00:28;2.35;;;1.52;;
16326;SDS011;34812;49.846;9.610;2023-10-13T22:05:56;2.15;;;1.23;;
16326;SDS011;34812;49.846;9.610;2023-10-13T22:11:02;3.35;;;1.15;;
16326;SDS011;34812;49.846;9.610;2023-10-13T22:16:04;2.50;;;1.75;;
16326;SDS011;34812;49.846;9.610;2023-10-13T22:21:10;2.78;;;1.40;;
16326;SDS011;34812;49.846;9.610;2023-10-13T22:26:14;2.13;;;1.23;;
16326;SDS011;34812;49.846;9.610;2023-10-13T22:31:17;3.47;;;1.38;;
16326;SDS011;34812;49.846;9.610;2023-10-13T22:36:22;2.90;;;1.30;;
16326;SDS011;34812;49.846;9.610;2023-10-13T22:41:26;2.33;;;1.60;;
16326;SDS011;34812;49.846;9.610;2023-10-13T22:46:28;4.07;;;1.45;;
16326;SDS011;34812;49.846;9.610;2023-10-13T22:51:31;2.03;;;1.23;;
16326;SDS011;34812;49.846;9.610;2023-10-13T22:56:35;6.93;;;1.83;;
16326;SDS011;34812;49.846;9.610;2023-10-13T23:01:41;2.42;;;1.20;;
16326;SDS011;34812;49.846;9.610;2023-10-13T23:06:43;11.35;;;1.63;;
16326;SDS011;34812;49.846;9.610;2023-10-13T23:11:51;2.83;;;1.52;;
16326;SDS011;34812;49.846;9.610;2023-10-13T23:16:56;2.08;;;1.50;;
16326;SDS011;34812;49.846;9.610;2023-10-13T23:21:58;1.83;;;1.20;;
16326;SDS011;34812;49.846;9.610;2023-10-13T23:27:02;2.70;;;1.52;;
16326;SDS011;34812;49.846;9.610;2023-10-13T23:32:05;2.75;;;1.73;;
16326;SDS011;34812;49.846;9.610;2023-10-13T23:37:08;2.47;;;1.42;;
16326;SDS011;34812;49.846;9.610;2023-10-13T23:42:12;3.65;;;1.88;;
16326;SDS011;34812;49.846;9.610;2023-10-13T23:47:23;2.45;;;1.50;;
16326;SDS011;34812;49.846;9.610;2023-10-13T23:52:27;3.88;;;1.88;;
16326;SDS011;34812;49.846;9.610;2023-10-13T23:57:39;2.53;;;1.35;;
